Rowe, New Mexico
Current Conditions -  °F | °C
As of 11:53 AM on Friday 31 Oct 2014 (Local Time) from KSAF Reporting Station
Clear Clear  
Wind Chill: 58°   Ceiling: Unl
Heat Index: 58°   Visibility: 10mi
Dew Point: 27°   Wind: 17mph
Humidity: 31%   Direction: 150°SSE
Pressure: 30.4"   Gusts: 25mph
Location:  35.49°N, 105.68°W
Report Text: KSAF 311753Z 15015G22KT 10SM CLR 14/M03 A3040 RMK AO2 SLP233 T01441028 10144 20067 58007
Loading
Personal Weather Stations






























Interactive Weather Map
Tropical Storm Tracking
New forecast layout! Learn more

10-Day Weather Forecast

Advertisements
Track Severe Weather on mobile